Time;durP1;ratioP1;P1;durP2;ratioP2;P2;SDS_P1;SDS_P2;PMS_P1;PMS_P2;Temp;Humidity;BMP_temperature;BMP_pressure;BME280_temperature;BME280_humidity;BME280_pressure;Samples;Min_cycle;Max_cycle;Signal;HPM_P1;HPM_P2
2023/05/09 00:01:19;;;;;;;405.33;103.27;;;;;;;;;;5030998;28;20057;-64
2023/05/09 00:03:46;;;;;;;503.07;111.10;;;;;;;;;;5030937;28;20050;-65
2023/05/09 00:06:12;;;;;;;439.63;105.27;;;;;;;;;;5030705;28;20132;-64
2023/05/09 00:08:40;;;;;;;341.17;91.73;;;;;;;;;;5044718;28;20056;-65
2023/05/09 00:11:06;;;;;;;442.93;103.43;;;;;;;;;;5041930;28;20080;-64
2023/05/09 00:13:32;;;;;;;427.37;99.30;;;;;;;;;;5030977;28;20092;-64
2023/05/09 00:15:59;;;;;;;468.10;107.60;;;;;;;;;;5030150;28;20464;-64
2023/05/09 00:18:27;;;;;;;510.27;111.90;;;;;;;;;;5030485;28;20092;-64
2023/05/09 00:20:53;;;;;;;473.37;105.73;;;;;;;;;;5029767;28;20056;-65
2023/05/09 00:23:19;;;;;;;516.10;107.73;;;;;;;;;;5031516;28;20053;-65
2023/05/09 00:25:45;;;;;;;414.10;98.07;;;;;;;;;;5030673;28;20049;-64
2023/05/09 00:28:11;;;;;;;368.23;91.87;;;;;;;;;;5029747;28;20053;-64
2023/05/09 00:30:37;;;;;;;452.47;101.83;;;;;;;;;;5033214;28;20120;-64
2023/05/09 00:33:03;;;;;;;442.53;96.47;;;;;;;;;;5044129;28;20056;-64
2023/05/09 00:35:31;;;;;;;461.90;100.53;;;;;;;;;;5050337;28;20128;-64
2023/05/09 00:37:57;;;;;;;369.63;90.53;;;;;;;;;;5050135;28;20075;-64
2023/05/09 00:40:23;;;;;;;457.33;99.40;;;;;;;;;;5048680;28;20128;-64
2023/05/09 00:42:50;;;;;;;448.60;95.73;;;;;;;;;;5032168;28;20076;-64
2023/05/09 00:45:16;;;;;;;280.40;79.93;;;;;;;;;;5030232;28;20049;-64
2023/05/09 00:47:42;;;;;;;482.90;102.50;;;;;;;;;;5037938;28;20045;-64
2023/05/09 00:50:08;;;;;;;462.53;96.73;;;;;;;;;;5049424;28;20824;-64
2023/05/09 00:52:35;;;;;;;396.60;91.50;;;;;;;;;;5042878;28;20079;-64
2023/05/09 00:55:01;;;;;;;442.73;97.67;;;;;;;;;;5038160;28;20411;-64
2023/05/09 00:57:27;;;;;;;355.53;86.27;;;;;;;;;;5030408;28;20045;-64
2023/05/09 00:59:53;;;;;;;410.43;87.20;;;;;;;;;;5028892;28;20461;-64
2023/05/09 01:02:20;;;;;;;479.57;101.40;;;;;;;;;;5030076;28;20042;-64
2023/05/09 01:04:46;;;;;;;437.67;93.07;;;;;;;;;;5029846;28;20172;-64
2023/05/09 01:07:18;;;;;;;430.97;93.87;;;;;;;;;;5029655;28;20131;-64
2023/05/09 01:10:10;;;;;;;432.03;95.00;;;;;;;;;;5029461;28;20522;-64
2023/05/09 01:12:41;;;;;;;347.23;83.90;;;;;;;;;;5025191;28;20053;-64
2023/05/09 01:15:17;;;;;;;192.87;64.13;;;;;;;;;;5048658;28;20041;-64
2023/05/09 01:17:54;;;;;;;398.50;86.23;;;;;;;;;;5049228;28;20037;-64
2023/05/09 01:20:33;;;;;;;446.07;91.07;;;;;;;;;;5044892;28;20103;-64
2023/05/09 01:23:22;;;;;;;459.87;94.60;;;;;;;;;;5036141;28;20041;-64
2023/05/09 01:26:02;;;;;;;408.70;86.40;;;;;;;;;;5020957;28;20045;-64
2023/05/09 01:28:40;;;;;;;360.83;82.43;;;;;;;;;;5029639;28;20141;-64
2023/05/09 01:31:07;;;;;;;442.00;93.13;;;;;;;;;;5029063;28;21076;-64
2023/05/09 01:33:35;;;;;;;378.07;84.40;;;;;;;;;;5028808;28;20033;-64
2023/05/09 01:36:04;;;;;;;396.50;87.37;;;;;;;;;;5029249;28;20068;-64
2023/05/09 01:38:32;;;;;;;386.33;87.43;;;;;;;;;;5028550;28;20802;-64
2023/05/09 01:40:58;;;;;;;289.90;77.73;;;;;;;;;;5028757;28;20052;-64
2023/05/09 01:43:27;;;;;;;365.80;80.37;;;;;;;;;;5031635;28;20038;-64
2023/05/09 01:45:53;;;;;;;366.87;80.10;;;;;;;;;;5048531;28;20107;-64
2023/05/09 01:48:20;;;;;;;445.03;89.23;;;;;;;;;;5049229;28;20065;-64
2023/05/09 01:50:47;;;;;;;414.73;87.27;;;;;;;;;;5049200;28;20132;-64
2023/05/09 01:53:13;;;;;;;447.83;91.93;;;;;;;;;;5047470;28;20392;-64
2023/05/09 01:55:40;;;;;;;381.97;85.87;;;;;;;;;;5029253;28;20120;-64
2023/05/09 01:58:07;;;;;;;272.03;74.33;;;;;;;;;;5029059;28;20057;-64
2023/05/09 02:00:33;;;;;;;400.73;86.93;;;;;;;;;;5028088;28;20534;-63
2023/05/09 02:03:00;;;;;;;426.33;86.60;;;;;;;;;;5047960;28;20159;-64
2023/05/09 02:05:27;;;;;;;391.83;84.67;;;;;;;;;;5049193;28;20156;-63
2023/05/09 02:07:57;;;;;;;283.53;77.20;;;;;;;;;;5032022;28;20052;-63
2023/05/09 02:10:24;;;;;;;383.50;83.13;;;;;;;;;;5028917;28;20053;-63
2023/05/09 02:12:50;;;;;;;281.80;76.60;;;;;;;;;;5029411;28;20054;-63
2023/05/09 02:15:16;;;;;;;336.07;82.50;;;;;;;;;;5029194;28;20076;-63
2023/05/09 02:17:42;;;;;;;376.83;85.07;;;;;;;;;;5028930;28;20077;-63
2023/05/09 02:20:10;;;;;;;270.30;75.00;;;;;;;;;;5028356;28;20101;-62
2023/05/09 02:22:36;;;;;;;433.83;91.47;;;;;;;;;;5045170;28;20067;-63
2023/05/09 02:25:04;;;;;;;320.40;81.03;;;;;;;;;;5048663;28;20080;-63
2023/05/09 02:27:32;;;;;;;241.37;72.43;;;;;;;;;;5048632;28;20068;-63
2023/05/09 02:30:01;;;;;;;365.03;86.60;;;;;;;;;;5046823;28;20055;-63
2023/05/09 02:32:30;;;;;;;434.47;89.93;;;;;;;;;;5034097;28;20056;-63
2023/05/09 02:34:57;;;;;;;464.03;90.23;;;;;;;;;;5028512;28;20484;-63
2023/05/09 02:37:23;;;;;;;373.23;80.73;;;;;;;;;;5029307;28;20045;-63
2023/05/09 02:39:50;;;;;;;431.90;91.63;;;;;;;;;;5032209;28;20128;-63
2023/05/09 02:42:18;;;;;;;473.37;93.60;;;;;;;;;;5038069;28;20492;-63
2023/05/09 02:44:44;;;;;;;411.57;84.37;;;;;;;;;;5032091;28;20077;-63
2023/05/09 02:47:10;;;;;;;455.63;96.77;;;;;;;;;;5032730;28;20084;-63
2023/05/09 02:49:36;;;;;;;444.23;94.47;;;;;;;;;;5032001;28;20068;-63
2023/05/09 02:52:02;;;;;;;387.33;88.50;;;;;;;;;;5031980;28;20060;-63
2023/05/09 02:54:28;;;;;;;305.17;79.47;;;;;;;;;;5032386;28;20092;-63
2023/05/09 02:56:54;;;;;;;288.73;77.47;;;;;;;;;;5042058;28;20051;-63
2023/05/09 02:59:20;;;;;;;467.10;95.73;;;;;;;;;;5048370;28;20053;-63
2023/05/09 03:01:46;;;;;;;321.67;84.20;;;;;;;;;;5031996;28;20045;-63
2023/05/09 03:04:12;;;;;;;326.70;85.17;;;;;;;;;;5032067;28;20511;-64
2023/05/09 03:06:38;;;;;;;360.80;86.67;;;;;;;;;;5031326;28;20598;-65
2023/05/09 03:09:05;;;;;;;334.70;86.60;;;;;;;;;;5031834;28;20408;-64
2023/05/09 03:11:32;;;;;;;253.10;74.00;;;;;;;;;;5040856;28;20080;-64
2023/05/09 03:13:58;;;;;;;285.63;80.50;;;;;;;;;;5047090;28;20053;-64
2023/05/09 03:16:24;;;;;;;325.50;84.43;;;;;;;;;;5032070;28;20042;-64
2023/05/09 03:18:50;;;;;;;302.63;82.03;;;;;;;;;;5031730;28;20052;-64
2023/05/09 03:21:16;;;;;;;306.57;79.07;;;;;;;;;;5031583;28;20041;-64
2023/05/09 03:23:42;;;;;;;290.03;80.47;;;;;;;;;;5031896;28;20502;-63
2023/05/09 03:26:08;;;;;;;303.90;80.83;;;;;;;;;;5031203;28;20056;-63
2023/05/09 03:28:34;;;;;;;325.67;84.30;;;;;;;;;;5031774;28;20050;-63
2023/05/09 03:31:00;;;;;;;332.13;83.93;;;;;;;;;;5051020;28;20057;-63
2023/05/09 03:33:26;;;;;;;317.07;83.27;;;;;;;;;;5051543;28;20056;-64
2023/05/09 03:35:52;;;;;;;322.03;83.87;;;;;;;;;;5047533;28;20132;-63
2023/05/09 03:38:18;;;;;;;370.37;90.43;;;;;;;;;;5030704;28;20130;-64
2023/05/09 03:40:44;;;;;;;442.60;104.17;;;;;;;;;;5048301;28;20398;-64
2023/05/09 03:43:10;;;;;;;457.57;108.90;;;;;;;;;;5050922;28;20051;-64
2023/05/09 03:45:37;;;;;;;429.47;101.77;;;;;;;;;;5051207;28;20070;-63
2023/05/09 03:48:07;;;;;;;501.70;111.53;;;;;;;;;;5050989;28;20107;-63
2023/05/09 03:50:33;;;;;;;598.83;127.90;;;;;;;;;;5045828;28;20468;-64
2023/05/09 03:52:59;;;;;;;857.83;152.07;;;;;;;;;;5031095;28;20049;-63
2023/05/09 03:55:25;;;;;;;1207.67;180.93;;;;;;;;;;5031194;28;20569;-64
2023/05/09 03:57:51;;;;;;;1364.17;193.53;;;;;;;;;;5030810;28;20413;-63
2023/05/09 04:00:17;;;;;;;1443.63;202.27;;;;;;;;;;5031076;28;20049;-63
2023/05/09 04:02:43;;;;;;;1354.63;199.37;;;;;;;;;;5047651;28;20422;-64
2023/05/09 04:05:09;;;;;;;1549.13;206.90;;;;;;;;;;5050985;28;20137;-63
2023/05/09 04:07:35;;;;;;;1660.90;211.07;;;;;;;;;;5041652;28;20152;-64
2023/05/09 04:10:01;;;;;;;1586.37;212.53;;;;;;;;;;5030903;28;20046;-64
2023/05/09 04:12:27;;;;;;;1477.87;208.87;;;;;;;;;;5028852;28;20721;-64
2023/05/09 04:14:53;;;;;;;1568.00;221.57;;;;;;;;;;5030507;28;20084;-63
2023/05/09 04:17:19;;;;;;;1276.87;188.17;;;;;;;;;;5030064;28;20041;-64
2023/05/09 04:19:45;;;;;;;1362.93;197.47;;;;;;;;;;5030312;28;20046;-64
2023/05/09 04:22:11;;;;;;;1364.60;196.63;;;;;;;;;;5030645;28;20051;-63
2023/05/09 04:24:37;;;;;;;1340.17;195.20;;;;;;;;;;5029576;28;20037;-64
2023/05/09 04:27:03;;;;;;;1365.47;205.17;;;;;;;;;;5034967;28;20564;-63
2023/05/09 04:29:29;;;;;;;1570.00;225.27;;;;;;;;;;5041709;28;20052;-64
2023/05/09 04:31:55;;;;;;;1165.93;187.30;;;;;;;;;;5029841;28;20419;-63
2023/05/09 04:34:21;;;;;;;1159.07;195.20;;;;;;;;;;5029843;28;20082;-64
2023/05/09 04:36:47;;;;;;;1075.30;187.93;;;;;;;;;;5030503;28;20042;-64
2023/05/09 04:39:13;;;;;;;852.23;167.97;;;;;;;;;;5029845;28;20045;-64
2023/05/09 04:41:42;;;;;;;827.57;161.77;;;;;;;;;;5030054;28;20045;-64
2023/05/09 04:44:08;;;;;;;951.40;177.80;;;;;;;;;;5029630;28;20046;-64
2023/05/09 04:46:34;;;;;;;699.20;152.23;;;;;;;;;;5029721;28;20041;-65
2023/05/09 04:49:00;;;;;;;688.50;149.87;;;;;;;;;;5029803;28;20045;-64
2023/05/09 04:51:26;;;;;;;709.00;151.70;;;;;;;;;;5030053;28;20046;-64
2023/05/09 04:53:52;;;;;;;712.50;154.07;;;;;;;;;;5036675;28;20053;-64
2023/05/09 04:56:18;;;;;;;680.77;152.47;;;;;;;;;;5029717;28;20045;-63
2023/05/09 04:58:44;;;;;;;564.47;138.40;;;;;;;;;;5045943;28;20040;-63
2023/05/09 05:01:10;;;;;;;562.23;138.70;;;;;;;;;;5053060;28;20069;-63
2023/05/09 05:03:36;;;;;;;547.73;132.13;;;;;;;;;;5059663;28;20041;-62
2023/05/09 05:06:02;;;;;;;549.73;133.23;;;;;;;;;;5053059;28;20037;-62
2023/05/09 05:08:28;;;;;;;507.73;131.00;;;;;;;;;;5029371;28;21059;-62
2023/05/09 05:10:54;;;;;;;478.90;128.73;;;;;;;;;;5027947;28;20494;-63
2023/05/09 05:13:21;;;;;;;511.13;130.53;;;;;;;;;;5029666;28;20049;-63
2023/05/09 05:15:47;;;;;;;434.13;119.10;;;;;;;;;;5029770;28;20045;-63
2023/05/09 05:18:13;;;;;;;517.97;132.03;;;;;;;;;;5048260;28;20041;-63
2023/05/09 05:20:42;;;;;;;438.30;119.07;;;;;;;;;;5049518;28;20045;-63
2023/05/09 05:23:09;;;;;;;471.90;125.27;;;;;;;;;;5048952;28;20573;-63
2023/05/09 05:25:35;;;;;;;415.93;114.07;;;;;;;;;;5049416;28;20403;-64
2023/05/09 05:28:01;;;;;;;437.33;120.67;;;;;;;;;;5034834;28;20041;-65
2023/05/09 05:30:27;;;;;;;441.80;118.63;;;;;;;;;;5056452;28;20063;-65
2023/05/09 05:32:53;;;;;;;440.40;119.57;;;;;;;;;;5056857;28;20163;-65
2023/05/09 05:35:22;;;;;;;450.07;122.47;;;;;;;;;;5058980;28;20044;-62
2023/05/09 05:37:48;;;;;;;494.00;129.73;;;;;;;;;;5053839;28;20079;-62
2023/05/09 05:40:14;;;;;;;413.07;119.13;;;;;;;;;;5055706;28;20037;-62
2023/05/09 05:42:40;;;;;;;466.07;124.37;;;;;;;;;;5058166;28;20440;-62
2023/05/09 05:45:06;;;;;;;424.50;118.07;;;;;;;;;;5056618;28;20120;-63
2023/05/09 05:47:33;;;;;;;400.93;114.93;;;;;;;;;;5054592;28;20052;-63
2023/05/09 05:50:00;;;;;;;419.03;117.77;;;;;;;;;;5054609;28;20330;-63
2023/05/09 05:52:26;;;;;;;358.83;112.80;;;;;;;;;;5057128;28;20057;-63
2023/05/09 05:54:52;;;;;;;325.73;102.40;;;;;;;;;;5052431;28;20676;-64
2023/05/09 05:57:18;;;;;;;353.57;108.93;;;;;;;;;;5059000;28;20098;-63
2023/05/09 05:59:46;;;;;;;341.03;106.00;;;;;;;;;;5053678;28;20072;-63
2023/05/09 06:02:13;;;;;;;317.37;104.67;;;;;;;;;;5047840;28;20080;-63
2023/05/09 06:04:39;;;;;;;245.50;92.07;;;;;;;;;;5048394;28;20047;-63
2023/05/09 06:07:05;;;;;;;262.63;91.30;;;;;;;;;;5042560;28;20041;-63
2023/05/09 06:09:31;;;;;;;235.27;90.93;;;;;;;;;;5029363;28;20041;-63
2023/05/09 06:11:57;;;;;;;203.00;83.17;;;;;;;;;;5046631;28;20155;-63
2023/05/09 06:14:23;;;;;;;269.87;92.70;;;;;;;;;;5051695;28;20127;-63
2023/05/09 06:16:50;;;;;;;228.47;88.57;;;;;;;;;;5047478;28;20568;-64
2023/05/09 06:19:16;;;;;;;223.80;84.43;;;;;;;;;;5030906;28;20080;-63
2023/05/09 06:21:42;;;;;;;254.40;89.63;;;;;;;;;;5030222;28;20046;-63
2023/05/09 06:24:08;;;;;;;203.87;82.30;;;;;;;;;;5030783;28;20053;-63
2023/05/09 06:26:35;;;;;;;202.77;83.47;;;;;;;;;;5031349;28;20041;-63
2023/05/09 06:29:01;;;;;;;180.30;75.37;;;;;;;;;;5036178;28;20049;-63
2023/05/09 06:31:27;;;;;;;182.67;73.90;;;;;;;;;;5040962;28;20527;-63
2023/05/09 06:33:53;;;;;;;155.10;69.37;;;;;;;;;;5052370;28;20057;-63
2023/05/09 06:36:19;;;;;;;229.87;82.43;;;;;;;;;;5040687;28;20104;-63
2023/05/09 06:38:45;;;;;;;164.50;70.60;;;;;;;;;;5041047;28;20037;-63
2023/05/09 06:41:11;;;;;;;161.93;70.33;;;;;;;;;;5031863;28;20517;-63
2023/05/09 06:43:37;;;;;;;216.23;77.27;;;;;;;;;;5041589;28;20052;-63
2023/05/09 06:46:03;;;;;;;164.20;70.80;;;;;;;;;;5043728;28;20052;-63
2023/05/09 06:48:29;;;;;;;179.83;76.67;;;;;;;;;;5042543;28;20045;-63
2023/05/09 06:50:55;;;;;;;168.07;70.97;;;;;;;;;;5045988;28;20411;-63
2023/05/09 06:53:21;;;;;;;145.63;67.60;;;;;;;;;;5037330;28;20053;-63
2023/05/09 06:55:47;;;;;;;151.47;67.20;;;;;;;;;;5032229;28;20045;-63
2023/05/09 06:58:13;;;;;;;144.10;65.47;;;;;;;;;;5036115;28;20179;-63
2023/05/09 07:00:39;;;;;;;138.73;67.07;;;;;;;;;;5038532;28;20445;-63
2023/05/09 07:03:09;;;;;;;142.50;66.00;;;;;;;;;;5041661;28;20095;-63
2023/05/09 07:05:35;;;;;;;112.07;59.50;;;;;;;;;;5035029;28;20475;-64
2023/05/09 07:08:01;;;;;;;141.20;62.23;;;;;;;;;;5031357;28;20085;-63
2023/05/09 07:10:27;;;;;;;125.80;61.20;;;;;;;;;;5041957;28;20041;-63
2023/05/09 07:12:53;;;;;;;119.43;59.23;;;;;;;;;;5038069;28;20496;-63
2023/05/09 07:15:19;;;;;;;100.53;54.23;;;;;;;;;;5040324;28;20075;-63
2023/05/09 07:17:45;;;;;;;114.70;57.93;;;;;;;;;;5052861;28;20044;-63
2023/05/09 07:20:12;;;;;;;105.63;55.47;;;;;;;;;;5043692;28;20041;-62
2023/05/09 07:22:38;;;;;;;84.23;51.30;;;;;;;;;;5040026;28;20522;-62
2023/05/09 07:25:05;;;;;;;95.33;49.27;;;;;;;;;;5046529;28;20052;-62
2023/05/09 07:27:31;;;;;;;88.90;49.30;;;;;;;;;;5031900;28;20050;-62
2023/05/09 07:29:57;;;;;;;98.87;51.17;;;;;;;;;;5031450;28;20042;-62
2023/05/09 07:32:23;;;;;;;93.53;51.83;;;;;;;;;;5051264;28;20722;-62
2023/05/09 07:34:49;;;;;;;93.20;53.23;;;;;;;;;;5050931;28;20044;-62
2023/05/09 07:37:15;;;;;;;109.43;54.57;;;;;;;;;;5051565;28;20049;-62
2023/05/09 07:39:41;;;;;;;99.67;50.40;;;;;;;;;;5049351;28;20048;-62
2023/05/09 07:42:07;;;;;;;87.87;49.80;;;;;;;;;;5031948;28;20455;-62
2023/05/09 07:44:33;;;;;;;92.20;52.00;;;;;;;;;;5031072;28;20049;-62
2023/05/09 07:47:00;;;;;;;99.30;52.97;;;;;;;;;;5031375;28;20037;-62
2023/05/09 07:49:26;;;;;;;86.37;49.53;;;;;;;;;;5030985;28;20053;-62
2023/05/09 07:51:52;;;;;;;94.57;51.00;;;;;;;;;;5031148;28;20483;-62
2023/05/09 07:54:18;;;;;;;87.00;51.40;;;;;;;;;;5031815;28;20099;-61
2023/05/09 07:56:44;;;;;;;82.27;48.83;;;;;;;;;;5037898;28;20041;-61
2023/05/09 07:59:11;;;;;;;80.13;49.70;;;;;;;;;;5051353;28;20048;-62
2023/05/09 08:01:37;;;;;;;84.43;49.03;;;;;;;;;;5051807;28;20053;-62
2023/05/09 08:04:05;;;;;;;79.80;48.73;;;;;;;;;;5051843;28;20041;-63
2023/05/09 08:06:31;;;;;;;92.90;49.63;;;;;;;;;;5032312;28;20425;-62
2023/05/09 08:08:57;;;;;;;70.10;43.03;;;;;;;;;;5016216;28;20041;-62
2023/05/09 08:11:23;;;;;;;70.03;43.30;;;;;;;;;;5031075;28;20052;-62
2023/05/09 08:13:49;;;;;;;71.13;44.63;;;;;;;;;;5031608;28;20056;-63
2023/05/09 08:16:16;;;;;;;66.30;42.30;;;;;;;;;;5044231;28;20529;-62
2023/05/09 08:18:42;;;;;;;60.47;40.63;;;;;;;;;;5051346;28;20443;-62
2023/05/09 08:21:08;;;;;;;65.77;43.37;;;;;;;;;;5036987;28;20118;-62
2023/05/09 08:23:34;;;;;;;51.77;36.90;;;;;;;;;;5031169;28;20053;-62
2023/05/09 08:26:00;;;;;;;48.30;35.83;;;;;;;;;;5032843;28;20124;-62
2023/05/09 08:28:27;;;;;;;49.33;34.73;;;;;;;;;;5057449;28;20143;-62
2023/05/09 08:30:53;;;;;;;45.23;32.47;;;;;;;;;;5059912;28;20399;-62
2023/05/09 08:33:19;;;;;;;47.87;33.30;;;;;;;;;;5058040;28;20509;-61
2023/05/09 08:35:49;;;;;;;46.97;31.80;;;;;;;;;;5054466;28;20044;-62
2023/05/09 08:38:15;;;;;;;43.13;30.87;;;;;;;;;;5060712;28;20534;-62
2023/05/09 08:40:41;;;;;;;46.77;30.50;;;;;;;;;;5052075;28;20124;-61
2023/05/09 08:43:07;;;;;;;45.30;33.03;;;;;;;;;;5051096;28;20043;-61
2023/05/09 08:45:47;;;;;;;47.20;30.60;;;;;;;;;;5050947;28;20418;-61
2023/05/09 08:48:15;;;;;;;43.63;28.37;;;;;;;;;;5044704;28;20115;-61
2023/05/09 08:50:42;;;;;;;41.77;30.57;;;;;;;;;;5054289;28;20052;-61
2023/05/09 08:53:08;;;;;;;41.43;29.23;;;;;;;;;;5058525;28;20396;-61
2023/05/09 08:55:34;;;;;;;40.60;28.00;;;;;;;;;;5057728;28;20044;-61
2023/05/09 08:58:00;;;;;;;38.50;28.30;;;;;;;;;;5059645;28;20423;-61
2023/05/09 09:00:27;;;;;;;37.03;25.33;;;;;;;;;;5058094;28;20052;-61
2023/05/09 09:02:54;;;;;;;33.70;25.23;;;;;;;;;;5059501;28;20033;-60
2023/05/09 09:05:22;;;;;;;35.30;25.77;;;;;;;;;;5052652;28;20131;-60
2023/05/09 09:07:49;;;;;;;34.37;25.13;;;;;;;;;;5030404;28;20501;-60
2023/05/09 09:10:16;;;;;;;29.90;22.93;;;;;;;;;;5029919;28;20470;-60
2023/05/09 09:12:43;;;;;;;31.17;21.90;;;;;;;;;;5044690;28;20120;-59
2023/05/09 09:15:13;;;;;;;30.00;21.07;;;;;;;;;;5050047;28;20060;-59
2023/05/09 09:17:40;;;;;;;27.03;20.57;;;;;;;;;;5049606;28;20041;-60
2023/05/09 09:20:08;;;;;;;28.53;20.63;;;;;;;;;;5036351;28;20401;-62
2023/05/09 09:22:34;;;;;;;27.37;20.63;;;;;;;;;;5029528;28;20037;-60
2023/05/09 09:25:01;;;;;;;27.03;21.00;;;;;;;;;;5029165;28;20045;-59
2023/05/09 09:27:27;;;;;;;26.27;19.53;;;;;;;;;;5029824;28;20045;-59
2023/05/09 09:29:53;;;;;;;25.23;20.63;;;;;;;;;;5029336;28;20061;-60
2023/05/09 09:32:20;;;;;;;23.70;19.87;;;;;;;;;;5030439;28;20079;-59
2023/05/09 09:34:49;;;;;;;23.00;19.93;;;;;;;;;;5030065;28;20419;-59
2023/05/09 09:37:22;;;;;;;25.83;19.83;;;;;;;;;;5044221;28;20049;-59
2023/05/09 09:39:55;;;;;;;22.67;19.13;;;;;;;;;;5050196;28;20419;-59
2023/05/09 09:42:22;;;;;;;26.75;19.58;;;;;;;;;;5049918;28;20048;-59
2023/05/09 09:45:17;;;;;;;22.43;17.97;;;;;;;;;;5049718;28;20060;-59
2023/05/09 09:47:44;;;;;;;24.37;18.27;;;;;;;;;;5020038;28;20522;-60
2023/05/09 09:50:11;;;;;;;24.93;19.03;;;;;;;;;;5051545;28;20073;-59
2023/05/09 09:52:42;;;;;;;22.53;18.20;;;;;;;;;;5037884;28;20049;-59
2023/05/09 09:55:08;;;;;;;20.43;17.80;;;;;;;;;;5052866;28;20071;-59
2023/05/09 09:57:35;;;;;;;25.00;21.00;;;;;;;;;;5049470;28;20037;-59
2023/05/09 10:00:02;;;;;;;24.90;20.10;;;;;;;;;;5053804;28;20037;-60
2023/05/09 10:02:28;;;;;;;23.80;20.40;;;;;;;;;;5060256;28;20131;-60
2023/05/09 10:04:54;;;;;;;24.57;19.23;;;;;;;;;;5055576;28;20125;-60
2023/05/09 10:07:23;;;;;;;22.43;18.30;;;;;;;;;;5045398;28;20514;-59
2023/05/09 10:09:49;;;;;;;25.70;19.27;;;;;;;;;;5036837;28;20052;-59
2023/05/09 10:12:18;;;;;;;23.70;19.77;;;;;;;;;;5057353;28;20088;-59
2023/05/09 10:14:45;;;;;;;21.03;18.27;;;;;;;;;;5057765;28;20158;-59
2023/05/09 10:17:13;;;;;;;21.20;18.00;;;;;;;;;;5048570;28;20515;-59
2023/05/09 10:19:44;;;;;;;23.67;18.87;;;;;;;;;;5042842;28;20081;-60
2023/05/09 10:22:11;;;;;;;24.80;18.43;;;;;;;;;;5029853;28;20072;-59
2023/05/09 10:24:42;;;;;;;21.67;17.53;;;;;;;;;;5028625;28;20522;-59
2023/05/09 10:27:10;;;;;;;21.33;17.37;;;;;;;;;;5028936;28;20048;-59
2023/05/09 10:29:57;;;;;;;17.17;15.17;;;;;;;;;;5029011;28;20228;-59
2023/05/09 10:32:38;;;;;;;17.63;14.90;;;;;;;;;;5029655;28;20467;-59
2023/05/09 10:35:06;;;;;;;14.30;11.13;;;;;;;;;;5030293;28;20060;-59
2023/05/09 10:37:32;;;;;;;15.37;10.47;;;;;;;;;;5029430;28;20052;-59
2023/05/09 10:40:00;;;;;;;14.13;11.20;;;;;;;;;;5041184;28;20036;-59
2023/05/09 10:42:27;;;;;;;15.47;10.80;;;;;;;;;;5057829;28;20044;-59
2023/05/09 10:44:53;;;;;;;12.67;9.97;;;;;;;;;;5069442;28;20600;-59
2023/05/09 10:47:20;;;;;;;11.83;9.97;;;;;;;;;;5067914;28;20478;-60
2023/05/09 10:49:46;;;;;;;11.40;10.20;;;;;;;;;;5060975;28;20049;-60
2023/05/09 10:52:13;;;;;;;13.37;10.23;;;;;;;;;;5049206;28;20045;-59
2023/05/09 10:54:39;;;;;;;12.30;9.53;;;;;;;;;;5045719;28;20049;-60
2023/05/09 10:57:09;;;;;;;13.90;10.73;;;;;;;;;;5029414;28;20082;-60
2023/05/09 10:59:35;;;;;;;14.33;11.47;;;;;;;;;;5031599;28;20041;-60
2023/05/09 11:02:04;;;;;;;15.47;11.23;;;;;;;;;;5032523;28;20060;-60
2023/05/09 11:04:31;;;;;;;12.73;11.03;;;;;;;;;;5040184;28;20111;-59
2023/05/09 11:06:58;;;;;;;12.83;11.13;;;;;;;;;;5052672;28;20503;-60
2023/05/09 11:09:31;;;;;;;16.17;11.73;;;;;;;;;;5052945;28;20478;-60
2023/05/09 11:12:04;;;;;;;13.73;11.07;;;;;;;;;;5052620;28;20052;-60
2023/05/09 11:14:30;;;;;;;14.45;11.15;;;;;;;;;;5052258;28;20037;-60
2023/05/09 11:17:01;;;;;;;16.27;12.37;;;;;;;;;;5044490;28;20052;-60
2023/05/09 11:19:38;;;;;;;14.13;10.83;;;;;;;;;;5032708;28;20506;-60
2023/05/09 11:22:14;;;;;;;13.27;11.30;;;;;;;;;;5032473;28;20045;-60
2023/05/09 11:24:47;;;;;;;15.33;10.83;;;;;;;;;;5032210;28;20059;-59
2023/05/09 11:27:14;;;;;;;12.20;9.67;;;;;;;;;;5032307;28;20046;-60
2023/05/09 11:29:45;;;;;;;15.57;11.17;;;;;;;;;;5031329;28;20052;-61
2023/05/09 11:32:13;;;;;;;16.00;10.93;;;;;;;;;;5043780;28;20438;-60
2023/05/09 11:34:41;;;;;;;15.30;11.20;;;;;;;;;;5054697;28;20514;-60
2023/05/09 11:37:12;;;;;;;15.70;11.70;;;;;;;;;;5060052;28;20043;-60
2023/05/09 11:40:04;;;;;;;16.53;12.40;;;;;;;;;;5059293;28;20040;-61
2023/05/09 11:42:31;;;;;;;14.57;12.17;;;;;;;;;;5057502;28;20053;-60
2023/05/09 11:44:58;;;;;;;13.93;10.83;;;;;;;;;;5060100;28;20470;-60
2023/05/09 11:47:25;;;;;;;11.60;10.40;;;;;;;;;;5051645;28;20051;-60
2023/05/09 11:49:51;;;;;;;14.50;12.13;;;;;;;;;;5064580;28;20044;-61
2023/05/09 11:52:20;;;;;;;13.73;10.77;;;;;;;;;;5072037;28;20069;-61
2023/05/09 11:54:48;;;;;;;15.80;12.10;;;;;;;;;;5062397;28;20051;-60
2023/05/09 11:57:16;;;;;;;17.60;12.00;;;;;;;;;;5051396;28;20744;-60
2023/05/09 11:59:45;;;;;;;14.90;11.30;;;;;;;;;;5034888;28;20504;-62
2023/05/09 12:02:12;;;;;;;13.97;11.77;;;;;;;;;;5030168;28;20365;-60
2023/05/09 12:04:38;;;;;;;15.37;13.17;;;;;;;;;;5029713;28;20046;-61
2023/05/09 12:07:05;;;;;;;16.43;13.23;;;;;;;;;;5030113;28;20501;-61
2023/05/09 12:09:37;;;;;;;15.50;13.87;;;;;;;;;;5067214;28;20388;-61
2023/05/09 12:12:13;;;;;;;15.77;13.98;;;;;;;;;;5069795;28;20044;-60
2023/05/09 12:14:39;;;;;;;19.53;16.57;;;;;;;;;;5050823;28;20629;-60
2023/05/09 12:17:06;;;;;;;20.83;17.90;;;;;;;;;;5050328;28;20041;-60
2023/05/09 12:19:33;;;;;;;21.00;18.60;;;;;;;;;;5050315;28;20103;-60
2023/05/09 12:21:59;;;;;;;24.07;20.33;;;;;;;;;;5050406;28;20094;-60
2023/05/09 12:24:26;;;;;;;22.17;19.00;;;;;;;;;;5051610;28;20045;-60
2023/05/09 12:26:52;;;;;;;23.03;19.87;;;;;;;;;;5038837;28;20045;-61
2023/05/09 12:29:19;;;;;;;23.80;21.20;;;;;;;;;;5049044;28;20076;-60
2023/05/09 12:31:45;;;;;;;24.97;20.90;;;;;;;;;;5071371;28;20052;-60
2023/05/09 12:34:12;;;;;;;21.77;19.00;;;;;;;;;;5071115;28;20182;-60
2023/05/09 12:36:38;;;;;;;22.40;19.97;;;;;;;;;;5071131;28;20040;-60
2023/05/09 12:39:11;;;;;;;24.70;20.13;;;;;;;;;;5071246;28;20080;-60
2023/05/09 12:41:43;;;;;;;25.33;20.30;;;;;;;;;;5045334;28;20128;-60
2023/05/09 12:44:09;;;;;;;22.92;20.00;;;;;;;;;;5031238;28;20091;-60
2023/05/09 12:46:36;;;;;;;25.50;20.63;;;;;;;;;;5030965;28;20089;-60
2023/05/09 12:49:02;;;;;;;24.97;20.43;;;;;;;;;;5066469;28;20044;-61
2023/05/09 12:51:28;;;;;;;25.70;20.17;;;;;;;;;;5070951;28;20406;-60
2023/05/09 12:53:54;;;;;;;26.40;20.33;;;;;;;;;;5064185;28;20052;-60
2023/05/09 12:56:24;;;;;;;27.43;20.97;;;;;;;;;;5050187;28;20044;-60
2023/05/09 12:58:53;;;;;;;24.50;21.90;;;;;;;;;;5050563;28;20037;-60
2023/05/09 13:01:20;;;;;;;25.60;21.63;;;;;;;;;;5057050;28;20045;-59
2023/05/09 13:03:53;;;;;;;25.47;22.30;;;;;;;;;;5063461;28;20400;-60
2023/05/09 13:06:19;;;;;;;26.92;22.70;;;;;;;;;;5068486;28;20085;-60
2023/05/09 13:08:56;;;;;;;29.70;23.70;;;;;;;;;;5061255;28;20051;-60
2023/05/09 13:11:23;;;;;;;27.70;23.97;;;;;;;;;;5058670;28;20106;-60
2023/05/09 13:13:49;;;;;;;29.37;25.27;;;;;;;;;;5057003;28;20133;-59
2023/05/09 13:16:15;;;;;;;29.23;26.10;;;;;;;;;;5059161;28;20127;-59
2023/05/09 13:18:41;;;;;;;28.67;24.17;;;;;;;;;;5059019;28;20606;-58
2023/05/09 13:21:07;;;;;;;31.20;25.53;;;;;;;;;;5060525;28;20128;-59
2023/05/09 13:23:33;;;;;;;26.63;23.60;;;;;;;;;;5065741;28;20044;-59
2023/05/09 13:25:59;;;;;;;24.43;21.93;;;;;;;;;;5047438;28;20475;-60
2023/05/09 13:28:25;;;;;;;24.53;21.83;;;;;;;;;;5060704;28;20407;-60
2023/05/09 13:30:51;;;;;;;27.77;23.53;;;;;;;;;;5060513;28;20110;-60
2023/05/09 13:33:17;;;;;;;26.77;22.00;;;;;;;;;;5054452;28;20079;-60
2023/05/09 13:35:43;;;;;;;25.17;22.37;;;;;;;;;;5054448;28;20105;-59
2023/05/09 13:38:09;;;;;;;28.13;21.57;;;;;;;;;;5051638;28;20040;-60
2023/05/09 13:40:36;;;;;;;20.23;18.13;;;;;;;;;;5055942;28;20040;-60
2023/05/09 13:43:02;;;;;;;20.63;18.53;;;;;;;;;;5054514;28;20052;-60
2023/05/09 13:45:28;;;;;;;19.70;17.60;;;;;;;;;;5058900;28;20079;-60
2023/05/09 13:47:54;;;;;;;19.97;16.03;;;;;;;;;;5059392;28;20124;-60
2023/05/09 13:50:21;;;;;;;17.03;14.90;;;;;;;;;;5056977;28;20041;-58
2023/05/09 13:52:48;;;;;;;18.97;15.00;;;;;;;;;;5054525;28;20045;-59
2023/05/09 13:55:14;;;;;;;15.97;14.47;;;;;;;;;;5055086;28;20041;-59
2023/05/09 13:57:42;;;;;;;16.00;14.50;;;;;;;;;;5056049;28;20060;-59
2023/05/09 14:00:09;;;;;;;15.13;13.43;;;;;;;;;;5048127;28;20053;-59
2023/05/09 14:02:35;;;;;;;14.70;13.20;;;;;;;;;;5058516;28;20040;-59
2023/05/09 14:05:03;;;;;;;14.53;13.03;;;;;;;;;;5061363;28;20383;-58
2023/05/09 14:07:29;;;;;;;16.00;12.23;;;;;;;;;;5044415;28;20049;-58